createdAt,value
2022-08-17T00:01:24.126Z,5.40
2022-08-17T00:06:31.198Z,5.50
2022-08-17T00:11:36.297Z,5.63
2022-08-17T00:16:55.529Z,4.50
2022-08-17T00:22:31.974Z,5.05
2022-08-17T00:27:22.232Z,5.00
2022-08-17T00:33:14.072Z,4.82
2022-08-17T00:37:45.363Z,5.38
2022-08-17T00:42:48.091Z,4.82
2022-08-17T00:47:49.665Z,5.43
2022-08-17T00:52:56.004Z,5.07
2022-08-17T00:58:01.531Z,5.00
2022-08-17T01:03:11.855Z,5.00
2022-08-17T01:08:17.098Z,5.15
2022-08-17T01:13:19.946Z,5.30
2022-08-17T01:18:21.694Z,5.28
2022-08-17T01:23:25.391Z,5.40
2022-08-17T01:28:53.030Z,5.65
2022-08-17T01:33:53.269Z,5.93
2022-08-17T01:38:55.000Z,5.53
2022-08-17T01:44:03.278Z,6.28
2022-08-17T01:49:10.750Z,6.15
2022-08-17T01:54:16.294Z,6.97
2022-08-17T01:59:20.084Z,5.93
2022-08-17T02:04:21.756Z,6.32
2022-08-17T02:09:28.877Z,5.70
2022-08-17T02:14:31.577Z,8.00
2022-08-17T02:19:33.270Z,6.55
2022-08-17T02:24:58.894Z,5.93
2022-08-17T02:29:58.729Z,5.85
2022-08-17T02:35:00.912Z,6.10
2022-08-17T02:40:03.007Z,6.53
2022-08-17T02:45:11.119Z,6.03
2022-08-17T02:50:15.768Z,6.10
2022-08-17T03:01:21.620Z,6.93
2022-08-17T03:06:25.811Z,7.40
2022-08-17T03:11:27.376Z,8.20
2022-08-17T03:16:28.925Z,9.13
2022-08-17T03:21:30.507Z,10.70
2022-08-17T03:26:32.313Z,9.55
2022-08-17T03:31:33.918Z,9.40
2022-08-17T03:36:38.771Z,10.25
2022-08-17T03:41:40.326Z,10.60
2022-08-17T03:47:00.230Z,11.07
2022-08-17T03:52:21.770Z,11.02
2022-08-17T04:03:32.096Z,9.40
2022-08-17T04:14:53.445Z,9.18
2022-08-17T04:19:56.650Z,9.02
2022-08-17T04:24:58.785Z,9.25
2022-08-17T04:30:01.520Z,9.02
2022-08-17T04:35:03.242Z,10.07
2022-08-17T04:40:27.187Z,7.88
2022-08-17T04:45:31.976Z,7.60
2022-08-17T04:50:35.754Z,8.00
2022-08-17T04:55:37.570Z,6.78
2022-08-17T05:00:40.895Z,7.22
2022-08-17T05:05:49.545Z,6.72
2022-08-17T05:10:52.034Z,8.13
2022-08-17T05:15:56.946Z,7.43
2022-08-17T05:20:58.602Z,7.28
2022-08-17T05:26:00.224Z,7.63
2022-08-17T05:31:03.934Z,7.43
2022-08-17T05:36:10.699Z,6.32
2022-08-17T05:41:32.331Z,6.32
2022-08-17T05:46:40.198Z,6.43
2022-08-17T05:52:06.348Z,6.65
2022-08-17T05:57:32.408Z,6.70
2022-08-17T06:03:04.291Z,6.53
2022-08-17T06:08:23.494Z,6.75
2022-08-17T06:13:27.894Z,6.82
2022-08-17T06:18:57.021Z,6.75
2022-08-17T06:24:25.058Z,7.07
2022-08-17T06:29:39.546Z,7.68
2022-08-17T06:34:43.615Z,7.50
2022-08-17T06:39:52.304Z,7.70
2022-08-17T06:45:05.973Z,7.85
2022-08-17T06:50:27.356Z,8.35
2022-08-17T06:55:38.280Z,8.93
2022-08-17T07:00:44.255Z,8.18
2022-08-17T07:05:51.712Z,8.13
2022-08-17T07:10:57.770Z,8.05
2022-08-17T07:16:17.015Z,8.45
2022-08-17T07:21:41.254Z,7.60
2022-08-17T07:26:42.800Z,8.35
2022-08-17T07:31:46.109Z,7.30
2022-08-17T07:36:48.313Z,8.10
2022-08-17T07:41:57.167Z,7.50
2022-08-17T07:47:19.018Z,7.05
2022-08-17T07:52:50.524Z,8.23
2022-08-17T07:57:57.715Z,7.30
2022-08-17T08:03:25.967Z,7.40
2022-08-17T08:08:50.405Z,7.78
2022-08-17T08:13:52.127Z,8.13
2022-08-17T08:18:57.960Z,7.30
2022-08-17T08:24:17.788Z,8.27
2022-08-17T08:29:19.306Z,7.25
2022-08-17T08:35:01.470Z,6.28
2022-08-17T08:40:31.981Z,4.82
2022-08-17T08:45:33.472Z,3.78
2022-08-17T08:50:48.168Z,4.10
2022-08-17T08:55:58.963Z,3.78
2022-08-17T09:01:20.829Z,3.40
2022-08-17T09:06:47.047Z,3.60
2022-08-17T09:12:02.282Z,4.28
2022-08-17T09:17:46.870Z,4.03
2022-08-17T09:22:53.517Z,4.30
2022-08-17T09:27:55.006Z,4.30
2022-08-17T09:33:00.196Z,7.80
2022-08-17T09:38:11.631Z,9.00
2022-08-17T09:48:42.704Z,9.60
2022-08-17T09:53:44.852Z,9.77
2022-08-17T09:59:05.175Z,9.77
2022-08-17T10:04:32.167Z,8.77
2022-08-17T10:09:45.797Z,8.82
2022-08-17T10:15:08.047Z,7.85
2022-08-17T10:20:20.479Z,6.78
2022-08-17T10:25:54.785Z,6.80
2022-08-17T10:31:32.986Z,7.40
2022-08-17T10:36:41.368Z,7.18
2022-08-17T10:41:49.402Z,6.25
2022-08-17T10:47:05.507Z,5.30
2022-08-17T10:52:42.394Z,5.38
2022-08-17T10:57:50.206Z,5.18
2022-08-17T11:02:55.011Z,4.65
2022-08-17T11:07:58.485Z,5.22
2022-08-17T11:13:26.769Z,5.28
2022-08-17T11:18:40.169Z,4.80
2022-08-17T11:24:12.627Z,4.97
2022-08-17T11:29:50.676Z,4.90
2022-08-17T11:35:21.079Z,3.92
2022-08-17T11:40:47.482Z,3.90
2022-08-17T11:45:51.744Z,4.28
2022-08-17T11:51:19.063Z,4.60
2022-08-17T11:56:41.250Z,4.10
2022-08-17T12:01:57.061Z,4.28
2022-08-17T12:07:19.030Z,4.40
2022-08-17T12:12:29.803Z,4.00
2022-08-17T12:17:39.732Z,4.53
2022-08-17T12:22:54.747Z,4.20
2022-08-17T12:28:06.523Z,4.40
2022-08-17T12:33:13.692Z,4.38
2022-08-17T12:38:34.778Z,4.05
2022-08-17T12:43:36.487Z,4.15
2022-08-17T12:48:38.060Z,4.57
2022-08-17T12:53:42.429Z,3.83
2022-08-17T12:58:55.585Z,4.20
2022-08-17T13:04:00.162Z,4.10
2022-08-17T13:09:20.424Z,4.55
2022-08-17T13:14:22.517Z,4.32
2022-08-17T13:19:29.877Z,4.45
2022-08-17T13:24:53.287Z,3.80
2022-08-17T13:30:02.239Z,4.20
2022-08-17T13:35:40.955Z,4.53
2022-08-17T13:40:49.928Z,3.75
2022-08-17T13:45:52.353Z,5.65
2022-08-17T13:50:56.961Z,4.55
2022-08-17T13:56:07.395Z,3.97
2022-08-17T14:01:32.769Z,4.07
2022-08-17T14:06:53.218Z,3.67
2022-08-17T14:11:57.760Z,4.38
2022-08-17T14:16:59.353Z,4.72
2022-08-17T14:22:01.133Z,4.90
2022-08-17T14:27:05.328Z,4.55
2022-08-17T14:32:17.093Z,4.70
2022-08-17T14:37:20.408Z,4.68
2022-08-17T14:42:27.146Z,4.60
2022-08-17T14:47:28.694Z,4.38
2022-08-17T14:52:30.549Z,4.80
2022-08-17T14:57:34.621Z,5.10
2022-08-17T15:02:54.650Z,4.75
2022-08-17T15:07:56.220Z,4.63
2022-08-17T15:12:58.293Z,4.80
2022-08-17T15:18:00.383Z,4.20
2022-08-17T15:23:02.216Z,4.25
2022-08-17T15:28:04.166Z,4.13
2022-08-17T15:33:05.770Z,4.38
2022-08-17T15:38:11.965Z,4.50
2022-08-17T15:43:27.331Z,4.47
2022-08-17T15:48:41.718Z,4.30
2022-08-17T15:53:46.888Z,4.22
2022-08-17T15:58:49.420Z,4.47
2022-08-17T16:04:05.247Z,4.13
2022-08-17T16:09:08.905Z,4.03
2022-08-17T16:14:10.439Z,4.60
2022-08-17T16:19:15.320Z,4.53
2022-08-17T16:24:16.900Z,4.25
2022-08-17T16:29:18.509Z,4.50
2022-08-17T16:34:21.029Z,4.75
2022-08-17T16:39:24.571Z,4.18
2022-08-17T16:44:27.444Z,4.32
2022-08-17T16:49:36.974Z,4.82
2022-08-17T16:54:43.461Z,4.15
2022-08-17T16:59:50.154Z,4.53
2022-08-17T17:05:03.069Z,4.18
2022-08-17T17:10:16.987Z,4.03
2022-08-17T17:15:22.136Z,4.47
2022-08-17T17:20:28.914Z,4.40
2022-08-17T17:25:40.672Z,4.68
2022-08-17T17:30:47.098Z,4.70
2022-08-17T17:35:59.138Z,4.03
2022-08-17T17:41:05.487Z,4.60
2022-08-17T17:46:31.338Z,3.88
2022-08-17T17:52:07.690Z,4.65
2022-08-17T17:57:33.830Z,4.22
2022-08-17T18:02:52.018Z,4.28
2022-08-17T18:08:21.837Z,4.30
2022-08-17T18:13:54.127Z,4.80
2022-08-17T18:18:57.888Z,4.70
2022-08-17T18:24:05.392Z,4.75
2022-08-17T18:29:28.177Z,4.68
2022-08-17T18:34:46.712Z,5.75
2022-08-17T18:45:54.187Z,5.13
2022-08-17T18:51:00.269Z,5.22
2022-08-17T18:56:27.088Z,5.13
2022-08-17T19:01:53.655Z,5.47
2022-08-17T19:07:23.699Z,5.72
2022-08-17T19:12:48.344Z,5.65
2022-08-17T19:17:57.043Z,5.32
2022-08-17T19:23:12.971Z,5.15
2022-08-17T19:28:23.048Z,5.15
2022-08-17T19:33:25.757Z,5.45
2022-08-17T19:38:46.022Z,5.35
2022-08-17T19:44:15.280Z,5.15
2022-08-17T19:49:40.807Z,5.07
2022-08-17T19:55:02.240Z,4.82
2022-08-17T20:00:15.041Z,5.60
2022-08-17T20:05:22.261Z,6.00
2022-08-17T20:10:38.705Z,5.70
2022-08-17T20:15:43.018Z,6.03
2022-08-17T20:20:56.966Z,6.18
2022-08-17T20:26:10.755Z,4.75
2022-08-17T20:31:50.611Z,5.78
2022-08-17T20:42:31.458Z,5.63
2022-08-17T20:48:07.280Z,5.40
2022-08-17T20:53:13.420Z,5.68
2022-08-17T20:58:17.055Z,5.22
2022-08-17T21:03:25.283Z,5.32
2022-08-17T21:08:30.577Z,5.38
2022-08-17T21:14:10.757Z,5.60
2022-08-17T21:20:07.628Z,5.07
2022-08-17T21:25:25.632Z,5.78
2022-08-17T21:30:27.867Z,5.47
2022-08-17T21:35:48.018Z,5.35
2022-08-17T21:40:53.188Z,5.50
2022-08-17T21:45:59.564Z,5.88
2022-08-17T21:51:19.008Z,5.70
2022-08-17T21:56:30.434Z,5.30
2022-08-17T22:01:35.597Z,4.72
2022-08-17T22:06:56.922Z,4.43
2022-08-17T22:12:11.278Z,4.50
2022-08-17T22:17:19.051Z,4.50
2022-08-17T22:22:34.355Z,4.63
2022-08-17T22:27:57.322Z,4.40
2022-08-17T22:33:00.926Z,4.70
2022-08-17T22:38:20.632Z,4.63
2022-08-17T22:43:28.556Z,4.15
2022-08-17T22:48:31.249Z,4.43
2022-08-17T22:53:53.791Z,4.40
2022-08-17T22:59:16.361Z,4.50
2022-08-17T23:04:35.365Z,5.45
2022-08-17T23:09:37.051Z,5.10
2022-08-17T23:14:41.214Z,5.80
2022-08-17T23:19:42.945Z,5.47
2022-08-17T23:24:48.971Z,5.28
2022-08-17T23:29:50.593Z,5.50
2022-08-17T23:34:52.135Z,5.68
2022-08-17T23:39:53.718Z,5.95
2022-08-17T23:44:55.827Z,5.63
2022-08-17T23:49:57.444Z,6.25
2022-08-17T23:55:05.344Z,5.45
